createdAt,value
2023-01-19T00:00:25.399Z,12.91
2023-01-19T00:02:53.158Z,12.93
2023-01-19T00:05:20.165Z,12.77
2023-01-19T00:07:47.015Z,12.88
2023-01-19T00:10:14.034Z,12.90
2023-01-19T00:12:40.971Z,12.90
2023-01-19T00:15:08.472Z,12.90
2023-01-19T00:17:35.417Z,12.87
2023-01-19T00:20:02.360Z,12.89
2023-01-19T00:22:30.692Z,12.82
2023-01-19T00:24:57.734Z,12.79
2023-01-19T00:27:24.989Z,12.78
2023-01-19T00:29:51.909Z,12.77
2023-01-19T00:32:20.372Z,12.85
2023-01-19T00:34:49.657Z,12.82
2023-01-19T00:37:17.509Z,12.76
2023-01-19T00:39:45.139Z,12.68
2023-01-19T00:42:31.565Z,12.78
2023-01-19T00:44:58.513Z,12.76
2023-01-19T00:47:25.498Z,12.78
2023-01-19T00:49:52.527Z,12.75
2023-01-19T00:52:19.705Z,12.75
2023-01-19T00:54:46.635Z,12.86
2023-01-19T00:57:14.841Z,12.80
2023-01-19T00:59:41.752Z,12.78
2023-01-19T01:02:08.842Z,12.84
2023-01-19T01:04:35.979Z,12.84
2023-01-19T01:07:03.436Z,12.75
2023-01-19T01:09:30.655Z,12.78
2023-01-19T01:11:57.513Z,12.74
2023-01-19T01:14:26.889Z,12.75
2023-01-19T01:16:53.923Z,12.77
2023-01-19T01:19:24.503Z,12.80
2023-01-19T01:21:51.416Z,12.72
2023-01-19T01:24:18.935Z,12.71
2023-01-19T01:26:46.067Z,12.81
2023-01-19T01:29:13.073Z,12.86
2023-01-19T01:31:40.172Z,12.67
2023-01-19T01:34:07.484Z,12.75
2023-01-19T01:36:35.578Z,12.59
2023-01-19T01:39:02.550Z,12.65
2023-01-19T01:41:29.610Z,12.59
2023-01-19T01:44:01.895Z,12.61
2023-01-19T01:46:31.779Z,12.56
2023-01-19T01:49:09.676Z,12.62
2023-01-19T01:51:44.044Z,12.56
2023-01-19T01:54:21.452Z,12.68
2023-01-19T01:56:51.457Z,12.67
2023-01-19T01:59:26.283Z,12.62
2023-01-19T02:02:14.820Z,12.66
2023-01-19T02:05:04.286Z,12.69
2023-01-19T02:08:05.137Z,12.64
2023-01-19T02:10:52.018Z,12.70
2023-01-19T02:13:22.477Z,12.54
2023-01-19T02:15:55.111Z,12.55
2023-01-19T02:18:24.641Z,12.61
2023-01-19T02:21:11.661Z,12.72
2023-01-19T02:23:41.496Z,12.74
2023-01-19T02:26:10.697Z,12.92
2023-01-19T02:28:43.489Z,12.79
2023-01-19T02:31:11.344Z,12.80
2023-01-19T02:33:38.684Z,12.90
2023-01-19T02:36:08.231Z,12.83
2023-01-19T02:38:36.666Z,12.84
2023-01-19T02:41:06.368Z,12.74
2023-01-19T02:43:33.800Z,12.81
2023-01-19T02:46:00.763Z,12.87
2023-01-19T02:48:27.770Z,12.74
2023-01-19T02:51:04.252Z,12.69
2023-01-19T02:53:43.536Z,12.88
2023-01-19T02:56:42.377Z,12.78
2023-01-19T02:59:31.743Z,12.65
2023-01-19T03:02:26.679Z,12.57
2023-01-19T03:05:08.432Z,12.62
2023-01-19T03:08:03.957Z,12.53
2023-01-19T03:10:36.676Z,12.57
2023-01-19T03:13:11.267Z,12.50
2023-01-19T03:15:58.128Z,12.45
2023-01-19T03:18:29.642Z,12.47
2023-01-19T03:21:01.582Z,12.46
2023-01-19T03:23:34.050Z,12.46
2023-01-19T03:26:02.262Z,12.41
2023-01-19T03:28:30.755Z,12.39
2023-01-19T03:31:10.800Z,12.49
2023-01-19T03:33:40.525Z,12.54
2023-01-19T03:36:16.679Z,12.51
2023-01-19T03:38:46.513Z,12.52
2023-01-19T03:41:16.792Z,12.46
2023-01-19T03:43:45.839Z,12.38
2023-01-19T03:46:17.345Z,12.40
2023-01-19T03:48:46.906Z,12.32
2023-01-19T03:51:14.582Z,12.32
2023-01-19T03:53:42.090Z,12.38
2023-01-19T03:56:23.038Z,12.37
2023-01-19T03:58:50.511Z,12.31
2023-01-19T04:01:18.759Z,12.24
2023-01-19T04:03:47.214Z,12.36
2023-01-19T04:06:14.713Z,12.35
2023-01-19T04:08:41.821Z,12.42
2023-01-19T04:11:08.677Z,12.32
2023-01-19T04:13:36.167Z,12.33
2023-01-19T04:16:04.188Z,12.32
2023-01-19T04:18:34.641Z,12.34
2023-01-19T04:21:07.537Z,12.36
2023-01-19T04:23:35.416Z,12.37
2023-01-19T04:26:08.025Z,12.45
2023-01-19T04:28:37.213Z,12.40
2023-01-19T04:31:05.779Z,12.51
2023-01-19T04:33:33.431Z,12.37
2023-01-19T04:36:00.770Z,12.38
2023-01-19T04:38:27.869Z,12.37
2023-01-19T04:40:55.399Z,12.49
2023-01-19T04:43:23.465Z,12.42
2023-01-19T04:45:50.394Z,12.48
2023-01-19T04:48:18.614Z,12.38
2023-01-19T04:50:45.934Z,12.45
2023-01-19T04:53:13.929Z,12.35
2023-01-19T04:55:41.226Z,12.52
2023-01-19T04:58:08.316Z,12.52
2023-01-19T05:00:35.467Z,12.49
2023-01-19T05:03:02.732Z,12.53
2023-01-19T05:05:30.583Z,12.41
2023-01-19T05:07:57.565Z,12.42
2023-01-19T05:10:24.561Z,12.48
2023-01-19T05:12:51.986Z,12.36
2023-01-19T05:15:19.036Z,12.42
2023-01-19T05:17:46.746Z,12.38
2023-01-19T05:20:16.188Z,12.31
2023-01-19T05:22:48.547Z,12.28
2023-01-19T05:25:15.492Z,12.45
2023-01-19T05:27:42.556Z,12.38
2023-01-19T05:30:10.297Z,12.48
2023-01-19T05:32:37.242Z,12.37
2023-01-19T05:35:04.449Z,12.38
2023-01-19T05:37:32.733Z,12.17
2023-01-19T05:39:59.678Z,12.13
2023-01-19T05:42:32.023Z,12.14
2023-01-19T05:45:00.255Z,12.19
2023-01-19T05:47:29.481Z,12.21
2023-01-19T05:49:56.587Z,12.13
2023-01-19T05:52:25.031Z,12.17
2023-01-19T05:54:52.251Z,12.18
2023-01-19T05:57:19.228Z,12.24
2023-01-19T05:59:46.416Z,12.21
2023-01-19T06:02:13.432Z,11.99
2023-01-19T06:04:40.541Z,12.25
2023-01-19T06:07:07.512Z,12.23
2023-01-19T06:09:34.457Z,12.25
2023-01-19T06:12:01.527Z,12.24
2023-01-19T06:14:28.443Z,12.26
2023-01-19T06:16:55.353Z,12.15
2023-01-19T06:19:22.291Z,12.23
2023-01-19T06:21:52.347Z,12.21
2023-01-19T06:24:19.815Z,12.26
2023-01-19T06:26:49.769Z,11.93
2023-01-19T06:29:16.897Z,11.78
2023-01-19T06:31:44.135Z,11.69
2023-01-19T06:34:11.452Z,11.72
2023-01-19T06:36:38.824Z,11.92
2023-01-19T06:39:06.264Z,11.95
2023-01-19T06:41:34.098Z,12.02
2023-01-19T06:44:01.614Z,12.07
2023-01-19T06:46:29.068Z,12.28
2023-01-19T06:48:56.049Z,12.36
2023-01-19T06:51:23.491Z,12.52
2023-01-19T06:53:50.496Z,12.56
2023-01-19T06:56:17.418Z,12.53
2023-01-19T06:58:47.217Z,12.79
2023-01-19T07:01:14.452Z,12.86
2023-01-19T07:03:41.390Z,13.10
2023-01-19T07:06:08.607Z,13.23
2023-01-19T07:08:36.911Z,13.45
2023-01-19T07:11:24.772Z,13.44
2023-01-19T07:13:55.484Z,13.65
2023-01-19T07:16:23.731Z,13.74
2023-01-19T07:18:51.049Z,13.78
2023-01-19T07:21:18.530Z,13.85
2023-01-19T07:23:49.075Z,13.95
2023-01-19T07:26:18.677Z,13.93
2023-01-19T07:28:47.369Z,14.13
2023-01-19T07:31:16.398Z,14.24
2023-01-19T07:33:43.775Z,14.16
2023-01-19T07:36:11.630Z,14.37
2023-01-19T07:38:38.953Z,14.29
2023-01-19T07:41:08.581Z,14.49
2023-01-19T07:43:37.276Z,14.56
2023-01-19T07:46:07.167Z,14.56
2023-01-19T07:48:35.854Z,14.66
2023-01-19T07:51:12.961Z,14.79
2023-01-19T07:53:42.136Z,14.83
2023-01-19T07:56:10.235Z,14.91
2023-01-19T07:58:38.982Z,14.92
2023-01-19T08:01:13.408Z,15.06
2023-01-19T08:03:41.370Z,15.07
2023-01-19T08:06:19.736Z,15.14
2023-01-19T08:08:47.213Z,15.04
2023-01-19T08:11:16.041Z,15.14
2023-01-19T08:13:43.763Z,15.30
2023-01-19T08:16:10.855Z,15.28
2023-01-19T08:18:38.470Z,15.16
2023-01-19T08:21:05.884Z,15.49
2023-01-19T08:23:34.469Z,15.54
2023-01-19T08:26:27.562Z,15.45
2023-01-19T08:28:55.593Z,15.58
2023-01-19T08:31:25.018Z,15.63
2023-01-19T08:33:52.924Z,15.52
2023-01-19T08:36:21.590Z,15.60
2023-01-19T08:38:48.839Z,15.74
2023-01-19T08:41:19.416Z,15.76
2023-01-19T08:43:46.772Z,15.82
2023-01-19T08:46:17.624Z,15.80
2023-01-19T08:48:51.131Z,15.89
2023-01-19T08:51:18.781Z,15.95
2023-01-19T14:46:19.702Z,15.83
2023-01-19T14:48:48.971Z,15.83
2023-01-19T14:51:26.665Z,15.75
2023-01-19T14:53:58.617Z,15.77
2023-01-19T14:56:31.517Z,15.76
2023-01-19T14:59:01.045Z,15.71
2023-01-19T15:01:28.989Z,15.67
2023-01-19T15:03:57.486Z,15.60
2023-01-19T15:06:26.502Z,15.47
2023-01-19T15:08:54.242Z,15.46
2023-01-19T15:11:32.616Z,15.39
2023-01-19T15:14:00.195Z,15.31
2023-01-19T15:16:29.894Z,15.28
2023-01-19T15:18:56.891Z,15.17
2023-01-19T15:21:26.481Z,15.19
2023-01-19T15:23:54.737Z,15.22
2023-01-19T15:26:24.302Z,15.16
2023-01-19T15:28:52.063Z,15.15
2023-01-19T15:31:24.326Z,15.06
2023-01-19T15:33:51.611Z,15.09
2023-01-19T15:36:20.429Z,14.96
2023-01-19T15:38:50.853Z,14.98
2023-01-19T15:41:29.938Z,14.94
2023-01-19T15:43:57.919Z,14.92
2023-01-19T15:46:25.911Z,14.95
2023-01-19T15:48:53.706Z,14.89
2023-01-19T15:51:23.207Z,14.91
2023-01-19T15:53:50.506Z,14.81
2023-01-19T15:56:19.619Z,14.82
2023-01-19T15:58:46.927Z,14.80
2023-01-19T16:01:15.924Z,14.80
2023-01-19T16:03:43.258Z,14.69
2023-01-19T16:06:10.554Z,14.63
2023-01-19T16:08:38.155Z,14.69
2023-01-19T16:11:13.654Z,14.68
2023-01-19T16:13:40.788Z,14.63
2023-01-19T16:16:13.873Z,14.66
2023-01-19T16:18:41.016Z,14.44
2023-01-19T16:21:07.980Z,14.49
2023-01-19T16:23:34.907Z,14.38
2023-01-19T16:26:05.074Z,14.48
2023-01-19T16:28:32.049Z,14.44
2023-01-19T16:30:58.968Z,14.42
2023-01-19T16:33:25.919Z,14.37
2023-01-19T16:35:53.318Z,14.33
2023-01-19T16:38:22.689Z,14.24
2023-01-19T16:40:49.701Z,14.18
2023-01-19T16:43:16.629Z,14.19
2023-01-19T16:46:01.377Z,14.12
2023-01-19T16:48:28.996Z,13.96
2023-01-19T16:51:00.365Z,13.92
2023-01-19T16:53:28.041Z,13.88
2023-01-19T16:55:55.207Z,13.85
2023-01-19T16:58:22.448Z,13.86
2023-01-19T17:00:49.810Z,13.84
2023-01-19T17:03:17.111Z,13.77
2023-01-19T17:05:49.491Z,13.83
2023-01-19T17:08:18.961Z,13.91
2023-01-19T17:10:47.300Z,13.94
2023-01-19T17:13:14.295Z,13.84
2023-01-19T17:15:41.304Z,13.89
2023-01-19T17:18:10.221Z,13.96
2023-01-19T17:20:37.337Z,13.97
2023-01-19T17:23:04.401Z,13.99
2023-01-19T17:25:31.399Z,13.60
2023-01-19T17:28:01.456Z,13.99
2023-01-19T17:30:28.787Z,13.94
2023-01-19T17:32:55.984Z,13.99
2023-01-19T17:35:23.134Z,13.96
2023-01-19T17:37:54.169Z,14.04
2023-01-19T17:40:21.206Z,13.93
2023-01-19T17:42:48.241Z,13.96
2023-01-19T17:45:15.270Z,13.92
2023-01-19T17:47:42.166Z,13.91
2023-01-19T17:50:10.090Z,13.96
2023-01-19T17:52:38.074Z,13.99
2023-01-19T17:55:05.420Z,13.97
2023-01-19T17:57:32.341Z,13.99
2023-01-19T17:59:59.500Z,14.00
2023-01-19T18:02:26.484Z,13.93
2023-01-19T18:04:53.491Z,13.91
2023-01-19T18:07:20.587Z,14.01
2023-01-19T18:09:47.547Z,13.84
2023-01-19T18:12:14.481Z,13.93
2023-01-19T18:14:41.633Z,13.93
2023-01-19T18:17:08.738Z,13.99
2023-01-19T18:19:35.769Z,13.99
2023-01-19T18:22:02.808Z,13.97
2023-01-19T18:24:29.731Z,13.95
2023-01-19T18:26:56.733Z,14.06
2023-01-19T18:29:23.810Z,13.94
2023-01-19T18:31:50.790Z,13.96
2023-01-19T18:34:17.881Z,13.77
2023-01-19T18:36:44.907Z,13.78
2023-01-19T18:39:12.103Z,13.85
2023-01-19T18:41:41.872Z,13.79
2023-01-19T18:44:09.933Z,13.73
2023-01-19T18:46:37.699Z,13.75
2023-01-19T18:49:05.513Z,13.72
2023-01-19T18:51:32.571Z,13.72
2023-01-19T18:53:59.713Z,13.68
2023-01-19T18:56:26.895Z,13.70
2023-01-19T18:58:54.199Z,13.60
2023-01-19T19:01:27.065Z,13.70
2023-01-19T19:03:57.207Z,13.58
2023-01-19T19:06:27.069Z,13.56
2023-01-19T19:08:56.118Z,13.60
2023-01-19T19:11:24.638Z,13.62
2023-01-19T19:14:00.217Z,13.45
2023-01-19T19:16:28.950Z,13.33
2023-01-19T19:18:56.398Z,13.49
2023-01-19T19:21:25.320Z,13.45
2023-01-19T19:23:54.961Z,13.57
2023-01-19T19:26:23.818Z,13.28
2023-01-19T19:28:50.760Z,13.66
2023-01-19T19:31:20.908Z,13.62
2023-01-19T19:33:51.003Z,13.55
2023-01-19T19:36:20.009Z,13.62
2023-01-19T19:38:52.220Z,13.61
2023-01-19T19:41:23.005Z,13.43
2023-01-19T19:43:50.815Z,13.44
2023-01-19T19:46:26.317Z,13.56
2023-01-19T19:48:54.439Z,13.59
2023-01-19T19:51:27.543Z,13.49
2023-01-19T19:53:56.856Z,13.43
2023-01-19T19:56:25.909Z,13.54
2023-01-19T19:58:55.808Z,13.60
2023-01-19T20:01:28.512Z,13.57
2023-01-19T20:03:57.617Z,12.97
2023-01-19T20:06:26.023Z,13.48
2023-01-19T20:08:55.388Z,13.48
2023-01-19T20:11:27.444Z,13.49
2023-01-19T20:13:54.793Z,13.45
2023-01-19T20:16:23.331Z,13.44
2023-01-19T20:18:54.450Z,13.41
2023-01-19T20:21:27.547Z,13.18
2023-01-19T20:23:56.814Z,13.00
2023-01-19T20:26:27.234Z,13.69
2023-01-19T20:28:56.926Z,13.14
2023-01-19T20:31:27.334Z,13.66
2023-01-19T20:33:56.506Z,13.56
2023-01-19T20:36:24.606Z,13.37
2023-01-19T20:38:54.247Z,13.62
2023-01-19T20:41:22.596Z,13.44
2023-01-19T20:43:50.645Z,13.62
2023-01-19T20:46:18.495Z,13.55
2023-01-19T20:48:50.973Z,13.43
2023-01-19T20:51:19.102Z,13.55
2023-01-19T20:53:46.877Z,13.63
2023-01-19T20:56:15.609Z,13.59
2023-01-19T20:58:43.061Z,13.50
2023-01-19T21:01:21.902Z,13.64
2023-01-19T21:03:49.322Z,13.59
2023-01-19T21:06:16.846Z,13.63
2023-01-19T21:08:44.399Z,13.73
2023-01-19T21:11:13.230Z,13.61
2023-01-19T21:13:40.193Z,13.68
2023-01-19T21:16:07.922Z,13.74
2023-01-19T21:18:38.093Z,13.63
2023-01-19T21:21:05.047Z,13.63
2023-01-19T21:23:32.054Z,13.67
2023-01-19T21:26:00.090Z,13.66
2023-01-19T21:28:28.699Z,13.72
2023-01-19T21:30:56.314Z,13.67
2023-01-19T21:33:23.516Z,13.61
2023-01-19T21:35:55.454Z,13.73
2023-01-19T21:38:24.928Z,13.74
2023-01-19T21:40:51.853Z,13.66
2023-01-19T21:43:20.147Z,13.66
2023-01-19T21:45:48.580Z,13.75
2023-01-19T21:48:17.349Z,13.76
2023-01-19T21:50:44.692Z,13.76
2023-01-19T21:53:12.004Z,13.78
2023-01-19T21:55:44.624Z,13.83
2023-01-19T21:58:11.507Z,13.80
2023-01-19T22:00:38.487Z,13.79
2023-01-19T22:03:05.495Z,13.79
2023-01-19T22:05:37.176Z,13.81
2023-01-19T22:08:06.377Z,13.80
2023-01-19T22:10:37.724Z,13.78
2023-01-19T22:13:06.720Z,13.80
2023-01-19T22:15:33.851Z,13.77
2023-01-19T22:18:00.853Z,13.80
2023-01-19T22:20:28.147Z,13.69
2023-01-19T22:22:56.053Z,13.67
2023-01-19T22:25:27.683Z,13.69
2023-01-19T22:27:55.814Z,13.72
2023-01-19T22:30:22.789Z,13.57
2023-01-19T22:32:49.886Z,13.49
2023-01-19T22:35:17.025Z,13.44
2023-01-19T22:37:43.901Z,13.39
2023-01-19T22:40:11.645Z,13.52
2023-01-19T22:42:39.281Z,13.46
2023-01-19T22:45:06.742Z,13.37
2023-01-19T22:47:33.769Z,13.35
2023-01-19T22:50:00.687Z,13.31
2023-01-19T22:52:27.514Z,13.19
2023-01-19T22:54:56.438Z,13.16
2023-01-19T22:57:23.330Z,13.17
2023-01-19T22:59:50.189Z,13.18
2023-01-19T23:02:18.631Z,13.18
2023-01-19T23:04:47.429Z,13.15
2023-01-19T23:07:14.353Z,13.17
2023-01-19T23:09:41.275Z,13.19
2023-01-19T23:12:08.124Z,13.15
2023-01-19T23:14:36.322Z,13.13
2023-01-19T23:17:03.275Z,13.21
2023-01-19T23:19:30.305Z,13.28
2023-01-19T23:21:57.350Z,13.36
2023-01-19T23:24:24.193Z,13.42
2023-01-19T23:26:51.299Z,13.37
2023-01-19T23:29:18.398Z,13.39
2023-01-19T23:31:47.855Z,13.39
2023-01-19T23:34:14.883Z,13.43
2023-01-19T23:36:43.221Z,13.38
2023-01-19T23:39:16.597Z,13.37
2023-01-19T23:41:43.973Z,13.24
2023-01-19T23:44:10.799Z,13.05
2023-01-19T23:46:38.602Z,12.98
2023-01-19T23:49:05.547Z,13.05
2023-01-19T23:51:33.334Z,13.02
2023-01-19T23:54:00.825Z,13.12
2023-01-19T23:56:30.320Z,13.22
2023-01-19T23:59:03.942Z,13.29
